createdAt,value
2019-05-21T00:02:22.387Z,12.70
2019-05-21T00:05:03.024Z,12.70
2019-05-21T00:07:44.803Z,12.70
2019-05-21T00:10:25.723Z,12.70
2019-05-21T00:13:06.370Z,12.70
2019-05-21T00:15:47.155Z,12.70
2019-05-21T00:18:28.021Z,12.70
2019-05-21T00:21:09.097Z,12.70
2019-05-21T00:23:50.174Z,12.70
2019-05-21T00:26:30.789Z,12.70
2019-05-21T00:29:30.617Z,12.70
2019-05-21T00:32:11.769Z,12.70
2019-05-21T00:37:57.849Z,12.60
2019-05-21T00:40:39.415Z,12.60
2019-05-21T00:43:20.091Z,12.50
2019-05-21T00:46:00.960Z,12.50
2019-05-21T00:48:41.650Z,12.50
2019-05-21T00:51:21.585Z,12.50
2019-05-21T00:54:10.100Z,12.40
2019-05-21T00:56:58.558Z,12.40
2019-05-21T00:59:47.125Z,12.40
2019-05-21T01:02:35.585Z,12.40
2019-05-21T01:05:22.851Z,12.40
2019-05-21T01:08:29.091Z,12.40
2019-05-21T01:11:17.630Z,12.40
2019-05-21T01:16:55.021Z,12.30
2019-05-21T01:19:43.559Z,12.30
2019-05-21T01:22:32.047Z,12.30
2019-05-21T01:25:20.550Z,12.30
2019-05-21T01:28:09.011Z,12.30
2019-05-21T01:30:49.640Z,12.30
2019-05-21T01:36:48.481Z,12.20
2019-05-21T01:39:30.080Z,12.20
2019-05-21T01:42:11.605Z,12.20
2019-05-21T01:44:52.905Z,12.10
2019-05-21T01:47:34.606Z,12.20
2019-05-21T01:50:15.521Z,12.10
2019-05-21T01:52:57.125Z,12.10
2019-05-21T01:55:38.935Z,12.10
2019-05-21T01:58:20.386Z,12.10
2019-05-21T02:01:01.804Z,12.10
2019-05-21T02:03:43.317Z,12.00
2019-05-21T02:06:24.263Z,12.10
2019-05-21T02:09:24.498Z,12.10
2019-05-21T02:15:10.994Z,12.00
2019-05-21T02:18:11.161Z,12.00
2019-05-21T02:20:52.166Z,12.00
2019-05-21T02:23:33.908Z,12.00
2019-05-21T02:29:11.732Z,12.00
2019-05-21T02:31:52.450Z,12.00
2019-05-21T02:34:33.703Z,12.00
2019-05-21T02:37:15.226Z,12.00
2019-05-21T02:39:56.852Z,11.90
2019-05-21T02:42:38.420Z,11.90
2019-05-21T02:45:19.798Z,11.90
2019-05-21T02:48:01.349Z,11.90
2019-05-21T02:50:42.916Z,11.90
2019-05-21T02:59:34.186Z,11.90
2019-05-21T03:08:28.939Z,11.90
2019-05-21T03:11:09.800Z,11.90
2019-05-21T03:17:14.886Z,11.90
2019-05-21T03:19:56.108Z,11.90
2019-05-21T03:28:54.019Z,11.90
2019-05-21T03:31:35.479Z,11.90
2019-05-21T03:34:16.187Z,11.90
2019-05-21T03:36:57.662Z,11.90
2019-05-21T03:39:39.211Z,11.90
2019-05-21T03:42:20.631Z,11.90
2019-05-21T03:45:02.076Z,11.90
2019-05-21T03:47:43.493Z,11.90
2019-05-21T03:53:43.366Z,11.90
2019-05-21T03:56:24.526Z,11.90
2019-05-21T03:59:05.261Z,11.80
2019-05-21T04:01:46.082Z,11.90
2019-05-21T04:04:27.099Z,11.90
2019-05-21T04:13:20.693Z,11.90
2019-05-21T04:16:21.145Z,11.90
2019-05-21T04:19:09.452Z,11.90
2019-05-21T04:24:46.709Z,11.90
2019-05-21T04:27:35.215Z,11.90
2019-05-21T04:30:23.704Z,11.90
2019-05-21T04:33:04.962Z,11.90
2019-05-21T04:39:05.790Z,11.90
2019-05-21T04:48:09.950Z,11.90
2019-05-21T04:50:51.689Z,11.90
2019-05-21T04:53:33.219Z,11.90
2019-05-21T04:59:52.730Z,11.90
2019-05-21T05:02:34.149Z,11.90
2019-05-21T05:05:03.615Z,11.80
2019-05-21T05:10:40.935Z,11.80
2019-05-21T05:13:28.720Z,11.80
2019-05-21T05:15:58.873Z,11.80
2019-05-21T05:18:47.321Z,11.80
2019-05-21T05:21:36.097Z,11.80
2019-05-21T05:24:24.611Z,11.80
2019-05-21T05:27:13.085Z,11.80
2019-05-21T05:30:01.598Z,11.80
2019-05-21T05:32:42.880Z,11.80
2019-05-21T05:38:27.100Z,11.80
2019-05-21T05:41:15.613Z,11.80
2019-05-21T05:44:04.200Z,11.70
2019-05-21T05:46:52.814Z,11.80
2019-05-21T05:52:37.626Z,11.70
2019-05-21T05:55:26.128Z,11.70
2019-05-21T06:04:36.882Z,11.80
2019-05-21T06:07:25.465Z,11.80
2019-05-21T06:10:13.691Z,11.80
2019-05-21T06:13:02.148Z,11.80
2019-05-21T06:15:51.018Z,11.80
2019-05-21T06:18:39.974Z,11.80
2019-05-21T06:21:28.540Z,11.70
2019-05-21T06:24:17.121Z,11.70
2019-05-21T06:27:05.944Z,11.80
2019-05-21T06:29:54.882Z,11.80
2019-05-21T06:32:35.670Z,11.80
2019-05-21T06:35:16.724Z,11.80
2019-05-21T06:41:16.798Z,11.80
2019-05-21T06:43:57.462Z,11.80
2019-05-21T06:46:38.622Z,11.80
2019-05-21T06:49:20.284Z,11.80
2019-05-21T06:55:06.877Z,11.80
2019-05-21T06:57:48.424Z,11.80
2019-05-21T07:00:29.445Z,11.80
2019-05-21T07:03:10.328Z,11.90
2019-05-21T07:05:58.796Z,11.90
2019-05-21T07:12:05.289Z,11.80
2019-05-21T07:14:54.110Z,11.90
2019-05-21T07:17:42.614Z,11.90
2019-05-21T07:20:31.405Z,11.90
2019-05-21T07:23:19.903Z,11.90
2019-05-21T07:26:08.527Z,12.00
2019-05-21T07:28:57.467Z,12.00
2019-05-21T07:34:48.743Z,12.00
2019-05-21T07:37:29.440Z,12.10
2019-05-21T07:43:30.345Z,12.00
2019-05-21T07:46:11.500Z,12.00
2019-05-21T07:48:52.576Z,11.90
2019-05-21T07:51:34.020Z,11.90
2019-05-21T07:54:15.435Z,12.00
2019-05-21T08:00:20.607Z,12.00
2019-05-21T08:06:06.773Z,12.00
2019-05-21T08:08:48.486Z,12.00
2019-05-21T08:11:29.623Z,12.00
2019-05-21T08:14:10.706Z,12.00
2019-05-21T08:16:52.471Z,12.00
2019-05-21T08:22:50.668Z,12.00
2019-05-21T08:25:39.181Z,12.00
2019-05-21T08:28:45.253Z,12.00
2019-05-21T08:31:26.744Z,11.90
2019-05-21T08:34:07.583Z,12.00
2019-05-21T08:36:48.432Z,12.00
2019-05-21T08:39:29.510Z,12.00
2019-05-21T08:42:10.667Z,12.00
2019-05-21T08:45:10.327Z,12.00
2019-05-21T08:47:51.059Z,12.10
2019-05-21T08:50:32.688Z,12.10
2019-05-21T08:53:13.976Z,12.10
2019-05-21T08:59:14.510Z,12.10
2019-05-21T09:01:58.985Z,12.10
2019-05-21T09:04:46.442Z,12.10
2019-05-21T09:07:22.147Z,12.10
2019-05-21T09:10:03.306Z,12.10
2019-05-21T09:12:44.149Z,12.10
2019-05-21T09:15:25.222Z,12.10
2019-05-21T09:18:06.709Z,12.10
2019-05-21T09:26:48.699Z,12.20
2019-05-21T09:32:35.393Z,12.30
2019-05-21T09:35:16.996Z,12.40
2019-05-21T09:37:58.141Z,12.40
2019-05-21T09:40:39.425Z,12.40
2019-05-21T09:43:20.659Z,12.40
2019-05-21T09:46:02.487Z,12.40
2019-05-21T09:48:32.308Z,12.40
2019-05-21T09:51:20.806Z,12.40
2019-05-21T09:54:27.055Z,12.40
2019-05-21T09:56:56.650Z,12.40
2019-05-21T10:00:04.382Z,12.30
2019-05-21T10:02:52.901Z,12.40
2019-05-21T10:05:41.395Z,12.40
2019-05-21T10:11:38.462Z,12.30
2019-05-21T10:14:27.212Z,12.20
2019-05-21T10:21:05.777Z,12.20
2019-05-21T10:23:53.280Z,12.20
2019-05-21T10:26:23.021Z,12.20
2019-05-21T10:29:10.343Z,12.20
2019-05-21T10:31:52.115Z,12.20
2019-05-21T10:34:33.701Z,12.20
2019-05-21T10:37:14.822Z,12.30
2019-05-21T10:39:56.368Z,12.30
2019-05-21T10:45:56.531Z,12.30
2019-05-21T10:48:37.967Z,12.30
2019-05-21T10:51:19.370Z,12.40
2019-05-21T10:54:00.884Z,12.40
2019-05-21T10:56:47.894Z,12.40
2019-05-21T10:59:43.340Z,12.30
2019-05-21T11:02:43.758Z,12.40
2019-05-21T11:05:29.944Z,12.40
2019-05-21T11:08:26.525Z,12.40
2019-05-21T11:17:03.265Z,12.50
2019-05-21T11:19:44.271Z,12.50
2019-05-21T11:22:44.037Z,12.50
2019-05-21T11:25:25.606Z,12.50
2019-05-21T11:31:25.571Z,12.60
2019-05-21T11:34:06.616Z,12.60
2019-05-21T11:36:47.771Z,12.60
2019-05-21T11:39:28.608Z,12.60
2019-05-21T11:45:32.813Z,12.70
2019-05-21T11:48:13.083Z,12.80
2019-05-21T11:54:02.024Z,12.80
2019-05-21T11:56:43.599Z,12.80
2019-05-21T12:08:55.668Z,13.00
2019-05-21T12:11:24.774Z,12.90
2019-05-21T12:14:06.345Z,12.90
2019-05-21T12:16:47.227Z,12.80
2019-05-21T12:22:33.409Z,12.80
2019-05-21T12:28:22.226Z,12.70
2019-05-21T12:37:32.848Z,12.70
2019-05-21T12:40:13.548Z,12.70
2019-05-21T12:42:54.281Z,12.70
2019-05-21T12:45:35.691Z,12.60
2019-05-21T12:51:35.764Z,12.60
2019-05-21T12:57:36.223Z,12.60
2019-05-21T13:00:17.341Z,12.60
2019-05-21T13:02:58.754Z,12.60
2019-05-21T13:05:40.249Z,12.60
2019-05-21T13:11:41.488Z,12.60
2019-05-21T13:17:40.305Z,12.70
2019-05-21T13:23:39.873Z,12.60
2019-05-21T13:26:40.073Z,12.60
2019-05-21T13:32:38.425Z,12.70
2019-05-21T13:35:19.960Z,12.70
2019-05-21T13:38:00.702Z,12.70
2019-05-21T13:40:40.647Z,12.70
2019-05-21T13:43:29.517Z,12.60
2019-05-21T13:46:18.024Z,12.60
2019-05-21T13:49:06.534Z,12.60
2019-05-21T13:51:55.387Z,12.60
2019-05-21T13:54:43.832Z,12.60
2019-05-21T13:57:32.325Z,12.60
2019-05-21T14:03:36.262Z,12.60
2019-05-21T14:06:42.298Z,12.50
2019-05-21T14:09:30.796Z,12.50
2019-05-21T14:12:19.778Z,12.40
2019-05-21T14:18:50.729Z,12.40
2019-05-21T14:21:40.821Z,12.40
2019-05-21T14:24:29.370Z,12.40
2019-05-21T14:30:06.950Z,12.30
2019-05-21T14:32:48.365Z,12.40
2019-05-21T14:38:46.908Z,12.40
2019-05-21T14:41:28.108Z,12.40
2019-05-21T14:44:08.905Z,12.30
2019-05-21T14:46:50.337Z,12.30
2019-05-21T14:49:31.963Z,12.30
2019-05-21T15:04:43.645Z,12.40
2019-05-21T15:10:49.264Z,12.40
2019-05-21T15:13:26.828Z,12.40
2019-05-21T15:28:42.740Z,12.50
2019-05-21T15:34:43.367Z,12.50
2019-05-21T15:37:24.906Z,12.50
2019-05-21T15:40:06.759Z,12.50
2019-05-21T15:42:52.958Z,12.50
2019-05-21T15:45:30.988Z,12.50
2019-05-21T15:51:20.054Z,12.50
2019-05-21T15:54:00.686Z,12.50
2019-05-21T15:56:42.281Z,12.40
2019-05-21T15:59:23.196Z,12.50
2019-05-21T16:02:05.034Z,12.40
2019-05-21T16:04:46.245Z,12.40
2019-05-21T16:07:27.907Z,12.40
2019-05-21T16:16:21.584Z,12.30
2019-05-21T16:22:11.424Z,12.30
2019-05-21T16:25:11.939Z,12.30
2019-05-21T16:27:51.486Z,12.30
2019-05-21T16:30:39.986Z,12.30
2019-05-21T16:36:59.180Z,12.30
2019-05-21T16:40:04.684Z,12.20
2019-05-21T16:43:04.327Z,12.20
2019-05-21T16:45:45.035Z,12.20
2019-05-21T16:51:43.762Z,12.20
2019-05-21T16:54:25.376Z,12.20
2019-05-21T16:57:25.725Z,12.20
2019-05-21T17:03:15.539Z,12.20
2019-05-21T17:05:56.471Z,12.20
2019-05-21T17:12:14.155Z,12.10
2019-05-21T17:18:19.778Z,12.10
2019-05-21T17:21:01.254Z,12.00
2019-05-21T17:23:42.623Z,12.00
2019-05-21T17:32:55.718Z,12.00
2019-05-21T17:35:56.310Z,12.00
2019-05-21T17:41:44.819Z,12.00
2019-05-21T17:44:25.949Z,12.00
2019-05-21T17:47:07.448Z,12.00
2019-05-21T17:53:08.023Z,12.10
2019-05-21T17:58:52.884Z,12.10
2019-05-21T18:04:42.304Z,12.10
2019-05-21T18:07:23.154Z,12.10
2019-05-21T18:13:11.567Z,12.00
2019-05-21T18:22:24.491Z,11.90
2019-05-21T18:25:06.194Z,11.90
2019-05-21T18:27:48.344Z,11.90
2019-05-21T18:33:48.656Z,12.00
2019-05-21T18:36:18.078Z,11.90
2019-05-21T18:39:06.835Z,11.90
2019-05-21T18:41:55.165Z,11.90
2019-05-21T18:44:43.930Z,11.90
2019-05-21T18:47:32.426Z,11.90
2019-05-21T18:50:34.800Z,11.90
2019-05-21T18:52:52.261Z,11.90
2019-05-21T18:55:40.749Z,11.90
2019-05-21T18:58:29.261Z,11.90
2019-05-21T19:01:18.597Z,11.90
2019-05-21T19:04:07.194Z,11.80
2019-05-21T19:06:55.937Z,11.80
2019-05-21T19:09:44.423Z,11.80
2019-05-21T19:12:38.099Z,11.80
2019-05-21T19:18:12.211Z,11.80
2019-05-21T19:21:00.692Z,11.70
2019-05-21T19:23:49.769Z,11.70
2019-05-21T19:26:38.213Z,11.70
2019-05-21T19:29:26.713Z,11.70
2019-05-21T19:32:08.208Z,11.70
2019-05-21T19:34:49.764Z,11.70
2019-05-21T19:37:19.224Z,11.70
2019-05-21T19:40:08.086Z,11.70
2019-05-21T19:42:56.589Z,11.70
2019-05-21T19:48:33.854Z,11.70
2019-05-21T19:51:22.601Z,11.70
2019-05-21T19:54:11.100Z,11.70
2019-05-21T19:56:59.589Z,11.70
2019-05-21T19:59:48.567Z,11.70
2019-05-21T20:14:18.292Z,11.80
2019-05-21T20:20:36.502Z,11.80
2019-05-21T20:29:17.115Z,11.80
2019-05-21T20:31:58.570Z,11.90
2019-05-21T20:40:38.396Z,11.90
2019-05-21T20:43:26.195Z,11.90
2019-05-21T20:46:15.487Z,11.90
2019-05-21T20:49:04.495Z,11.90
2019-05-21T20:51:53.571Z,12.00
2019-05-21T21:07:40.469Z,11.90
2019-05-21T21:17:47.736Z,11.90
2019-05-21T21:20:28.996Z,11.90
2019-05-21T21:29:25.630Z,11.90
2019-05-21T21:32:14.399Z,11.90
2019-05-21T21:35:03.365Z,11.90
2019-05-21T21:37:33.251Z,11.90
2019-05-21T21:40:20.267Z,11.90
2019-05-21T21:43:26.894Z,11.90
2019-05-21T21:46:14.194Z,12.00
2019-05-21T21:49:38.233Z,12.00
2019-05-21T21:59:38.453Z,11.90
2019-05-21T22:05:55.891Z,11.90
2019-05-21T22:08:44.360Z,11.90
2019-05-21T22:14:28.881Z,11.90
2019-05-21T22:17:13.298Z,11.90
2019-05-21T22:19:54.716Z,11.90
2019-05-21T22:22:35.626Z,11.90
2019-05-21T22:25:16.544Z,11.90
2019-05-21T22:27:57.270Z,11.90
2019-05-21T22:30:38.752Z,11.90
2019-05-21T22:33:19.750Z,11.90
2019-05-21T22:36:01.224Z,11.90
2019-05-21T22:38:43.155Z,11.90
2019-05-21T22:41:24.156Z,11.90
2019-05-21T22:50:18.891Z,12.00
2019-05-21T22:56:08.176Z,12.00
2019-05-21T22:58:49.668Z,12.00
2019-05-21T23:01:30.564Z,12.00
2019-05-21T23:04:11.875Z,12.00
2019-05-21T23:06:53.129Z,12.00
2019-05-21T23:12:53.996Z,12.00
2019-05-21T23:15:34.889Z,12.00
2019-05-21T23:18:15.943Z,12.00
2019-05-21T23:24:06.733Z,12.00
2019-05-21T23:26:47.709Z,12.00
2019-05-21T23:29:28.730Z,11.90
2019-05-21T23:32:10.598Z,11.90
2019-05-21T23:38:09.741Z,12.00
2019-05-21T23:44:10.949Z,11.90
2019-05-21T23:50:11.542Z,11.90
2019-05-21T23:52:54.645Z,11.90
2019-05-21T23:55:35.555Z,11.90
2019-05-21T23:58:17.092Z,11.90
